createdAt,value
2022-07-26T00:01:14.891Z,6.40
2022-07-26T00:03:41.565Z,5.40
2022-07-26T00:06:08.330Z,5.55
2022-07-26T00:08:36.219Z,5.40
2022-07-26T00:11:07.318Z,5.45
2022-07-26T00:13:35.007Z,5.30
2022-07-26T00:16:01.825Z,5.75
2022-07-26T00:18:28.410Z,5.20
2022-07-26T00:20:55.566Z,5.18
2022-07-26T00:23:22.348Z,5.00
2022-07-26T00:25:50.237Z,5.70
2022-07-26T00:28:16.765Z,5.28
2022-07-26T00:30:43.320Z,5.45
2022-07-26T00:33:09.879Z,5.32
2022-07-26T00:35:36.443Z,5.13
2022-07-26T00:38:03.060Z,4.60
2022-07-26T00:40:30.476Z,5.10
2022-07-26T00:42:58.384Z,4.88
2022-07-26T00:45:24.934Z,5.03
2022-07-26T00:47:51.490Z,5.72
2022-07-26T00:50:19.197Z,5.03
2022-07-26T00:52:47.678Z,5.05
2022-07-26T00:55:14.881Z,5.35
2022-07-26T00:57:42.677Z,5.00
2022-07-26T01:00:14.576Z,5.20
2022-07-26T01:02:41.805Z,5.43
2022-07-26T01:05:08.773Z,5.70
2022-07-26T01:07:36.762Z,6.30
2022-07-26T01:10:05.731Z,6.30
2022-07-26T01:12:32.405Z,6.28
2022-07-26T01:14:58.911Z,6.45
2022-07-26T01:17:26.819Z,6.07
2022-07-26T01:19:53.352Z,6.65
2022-07-26T01:22:21.694Z,6.00
2022-07-26T01:24:48.232Z,6.28
2022-07-26T01:27:14.797Z,6.13
2022-07-26T01:29:41.368Z,6.95
2022-07-26T01:32:08.364Z,6.70
2022-07-26T01:34:35.043Z,7.38
2022-07-26T01:37:02.156Z,6.65
2022-07-26T01:39:30.015Z,6.85
2022-07-26T01:41:56.505Z,6.43
2022-07-26T01:44:23.335Z,6.15
2022-07-26T01:46:49.899Z,6.45
2022-07-26T01:49:16.578Z,6.18
2022-07-26T01:51:43.142Z,6.85
2022-07-26T01:54:10.287Z,6.57
2022-07-26T01:56:38.595Z,6.82
2022-07-26T01:59:05.595Z,7.05
2022-07-26T02:01:39.209Z,6.88
2022-07-26T02:04:06.923Z,6.68
2022-07-26T02:06:34.424Z,6.88
2022-07-26T02:09:01.013Z,6.78
2022-07-26T02:11:28.636Z,6.82
2022-07-26T02:13:56.502Z,6.75
2022-07-26T02:16:23.072Z,6.63
2022-07-26T02:18:49.684Z,7.22
2022-07-26T02:21:16.213Z,6.32
2022-07-26T02:23:43.287Z,6.60
2022-07-26T02:26:09.858Z,6.28
2022-07-26T02:28:36.374Z,6.57
2022-07-26T02:31:04.263Z,6.78
2022-07-26T02:33:30.844Z,6.88
2022-07-26T02:35:57.352Z,6.75
2022-07-26T02:38:25.109Z,7.05
2022-07-26T02:40:52.291Z,6.10
2022-07-26T02:43:18.818Z,6.55
2022-07-26T02:45:45.328Z,7.05
2022-07-26T02:48:31.716Z,6.40
2022-07-26T02:50:58.402Z,7.43
2022-07-26T02:53:24.925Z,6.18
2022-07-26T02:55:51.439Z,6.32
2022-07-26T02:58:17.962Z,6.50
2022-07-26T03:00:44.552Z,5.70
2022-07-26T03:03:11.130Z,6.90
2022-07-26T03:05:39.106Z,6.47
2022-07-26T03:08:06.124Z,6.05
2022-07-26T03:10:32.692Z,6.35
2022-07-26T03:12:59.686Z,6.50
2022-07-26T03:15:26.249Z,5.93
2022-07-26T03:17:52.869Z,6.30
2022-07-26T03:20:19.463Z,6.38
2022-07-26T03:22:47.389Z,6.63
2022-07-26T03:25:14.400Z,6.18
2022-07-26T03:27:41.246Z,5.97
2022-07-26T03:30:09.044Z,6.60
2022-07-26T03:32:35.656Z,5.82
2022-07-26T03:35:02.327Z,6.28
2022-07-26T03:37:45.855Z,6.00
2022-07-26T03:40:15.178Z,6.25
2022-07-26T03:42:41.752Z,6.40
2022-07-26T03:45:09.362Z,5.90
2022-07-26T03:47:35.979Z,6.22
2022-07-26T03:50:02.689Z,6.75
2022-07-26T03:52:29.274Z,6.60
2022-07-26T03:54:55.839Z,6.72
2022-07-26T03:57:23.713Z,6.68
2022-07-26T03:59:55.103Z,6.50
2022-07-26T04:02:21.834Z,6.85
2022-07-26T04:04:48.453Z,6.40
2022-07-26T04:07:16.017Z,5.82
2022-07-26T04:09:42.941Z,6.35
2022-07-26T04:12:09.696Z,6.35
2022-07-26T04:14:37.577Z,6.38
2022-07-26T04:17:04.211Z,6.38
2022-07-26T04:19:30.751Z,6.22
2022-07-26T04:21:57.285Z,6.07
2022-07-26T04:24:25.702Z,6.00
2022-07-26T04:26:52.558Z,6.10
2022-07-26T04:29:19.077Z,6.60
2022-07-26T04:31:46.947Z,6.43
2022-07-26T04:34:13.485Z,6.00
2022-07-26T04:36:40.036Z,5.97
2022-07-26T04:39:06.588Z,6.05
2022-07-26T04:41:33.217Z,5.95
2022-07-26T04:43:59.741Z,5.88
2022-07-26T04:46:26.382Z,6.10
2022-07-26T04:48:54.349Z,5.88
2022-07-26T04:51:21.114Z,5.55
2022-07-26T04:53:47.628Z,6.38
2022-07-26T04:56:14.177Z,6.45
2022-07-26T04:58:40.701Z,6.85
2022-07-26T05:01:10.422Z,6.32
2022-07-26T05:03:37.712Z,6.65
2022-07-26T05:06:06.113Z,7.03
2022-07-26T05:08:32.789Z,6.68
2022-07-26T05:10:59.354Z,6.93
2022-07-26T05:13:29.559Z,7.40
2022-07-26T05:15:56.845Z,6.90
2022-07-26T05:18:23.468Z,6.95
2022-07-26T05:20:51.047Z,6.65
2022-07-26T05:23:19.385Z,6.60
2022-07-26T05:25:46.014Z,7.22
2022-07-26T05:28:12.531Z,6.93
2022-07-26T05:30:39.166Z,6.53
2022-07-26T05:33:05.878Z,6.95
2022-07-26T05:35:32.417Z,7.10
2022-07-26T05:37:59.147Z,7.68
2022-07-26T05:40:27.485Z,7.97
2022-07-26T05:42:54.015Z,7.18
2022-07-26T05:45:20.541Z,6.82
2022-07-26T05:47:49.789Z,6.57
2022-07-26T05:50:16.469Z,5.97
2022-07-26T05:52:42.999Z,5.47
2022-07-26T05:55:10.138Z,5.63
2022-07-26T05:57:38.078Z,5.88
2022-07-26T06:00:06.182Z,5.50
2022-07-26T06:02:34.532Z,5.57
2022-07-26T06:05:01.086Z,5.00
2022-07-26T06:07:27.764Z,5.35
2022-07-26T06:09:54.281Z,5.85
2022-07-26T06:12:20.830Z,4.97
2022-07-26T06:14:48.690Z,5.63
2022-07-26T06:17:15.283Z,5.90
2022-07-26T06:19:47.350Z,5.25
2022-07-26T06:22:14.393Z,5.50
2022-07-26T06:24:40.895Z,5.25
2022-07-26T06:27:07.458Z,5.40
2022-07-26T06:29:33.969Z,5.05
2022-07-26T06:32:01.994Z,5.20
2022-07-26T06:34:28.640Z,4.95
2022-07-26T06:36:55.312Z,5.28
2022-07-26T06:39:21.823Z,5.15
2022-07-26T06:41:48.400Z,5.05
2022-07-26T06:44:14.960Z,5.10
2022-07-26T06:46:41.519Z,5.22
2022-07-26T06:49:09.442Z,4.97
2022-07-26T06:51:35.984Z,4.25
2022-07-26T06:54:02.577Z,4.15
2022-07-26T06:56:29.110Z,3.60
2022-07-26T06:58:55.638Z,4.38
2022-07-26T07:01:51.356Z,4.20
2022-07-26T07:04:10.706Z,3.28
2022-07-26T07:06:37.609Z,3.53
2022-07-26T07:09:04.798Z,3.78
2022-07-26T07:11:34.383Z,3.92
2022-07-26T07:14:00.930Z,3.72
2022-07-26T07:16:27.537Z,3.65
2022-07-26T07:18:54.199Z,3.70
2022-07-26T07:21:22.078Z,3.60
2022-07-26T07:23:48.612Z,2.97
2022-07-26T07:26:16.283Z,2.33
2022-07-26T07:28:42.824Z,2.35
2022-07-26T07:31:09.733Z,2.40
2022-07-26T07:33:36.645Z,2.30
2022-07-26T07:36:19.520Z,2.60
2022-07-26T07:38:48.016Z,2.47
2022-07-26T07:41:14.711Z,2.45
2022-07-26T07:43:41.247Z,2.10
2022-07-26T07:46:08.855Z,2.17
2022-07-26T07:48:36.635Z,2.30
2022-07-26T07:51:03.411Z,2.55
2022-07-26T07:53:30.433Z,3.00
2022-07-26T07:55:59.072Z,2.30
2022-07-26T07:58:25.704Z,2.50
2022-07-26T08:00:54.774Z,2.20
2022-07-26T08:03:21.438Z,2.33
2022-07-26T08:08:18.384Z,1.95
2022-07-26T08:10:51.859Z,1.90
2022-07-26T08:13:21.759Z,2.35
2022-07-26T08:15:49.301Z,2.58
2022-07-26T08:18:16.133Z,1.92
2022-07-26T08:20:43.292Z,2.00
2022-07-26T08:23:10.024Z,2.15
2022-07-26T08:25:39.978Z,2.15
2022-07-26T08:28:30.734Z,1.70
2022-07-26T08:31:00.550Z,1.77
2022-07-26T08:33:27.125Z,1.73
2022-07-26T08:35:58.304Z,1.55
2022-07-26T08:40:51.445Z,1.55
2022-07-26T08:43:17.985Z,1.52
2022-07-26T08:45:44.537Z,1.60
2022-07-26T08:48:17.841Z,2.00
2022-07-26T08:50:45.225Z,1.77
2022-07-26T08:53:12.630Z,1.92
2022-07-26T08:56:05.319Z,2.28
2022-07-26T08:58:25.802Z,2.10
2022-07-26T09:01:04.149Z,2.10
2022-07-26T09:03:32.384Z,1.80
2022-07-26T09:06:11.581Z,2.00
2022-07-26T09:08:38.331Z,2.10
2022-07-26T09:11:26.162Z,1.80
2022-07-26T09:13:55.249Z,2.10
2022-07-26T09:16:21.880Z,1.52
2022-07-26T09:18:49.859Z,1.70
2022-07-26T09:21:27.734Z,1.98
2022-07-26T09:23:54.981Z,1.30
2022-07-26T09:26:23.905Z,1.55
2022-07-26T09:29:02.991Z,1.90
2022-07-26T09:31:29.713Z,1.65
2022-07-26T09:33:57.828Z,1.77
2022-07-26T09:36:24.416Z,1.88
2022-07-26T09:38:53.281Z,1.98
2022-07-26T09:41:21.251Z,1.73
2022-07-26T09:43:53.497Z,2.15
2022-07-26T09:46:21.120Z,1.50
2022-07-26T09:51:40.263Z,1.63
2022-07-26T09:54:07.452Z,1.52
2022-07-26T09:56:43.337Z,1.50
2022-07-26T09:59:09.931Z,2.00
2022-07-26T10:01:36.569Z,1.45
2022-07-26T10:04:03.552Z,1.92
2022-07-26T10:06:30.642Z,1.52
2022-07-26T10:09:00.030Z,1.40
2022-07-26T10:11:28.880Z,1.40
2022-07-26T10:13:55.413Z,1.30
2022-07-26T10:16:32.562Z,1.70
2022-07-26T10:18:59.521Z,1.40
2022-07-26T10:21:29.186Z,1.48
2022-07-26T10:23:57.006Z,1.38
2022-07-26T10:26:38.925Z,1.30
2022-07-26T10:29:22.499Z,1.30
2022-07-26T10:32:15.951Z,1.45
2022-07-26T10:34:42.806Z,1.10
2022-07-26T10:37:11.429Z,1.52
2022-07-26T10:39:38.820Z,1.40
2022-07-26T10:42:08.401Z,1.27
2022-07-26T10:44:36.268Z,1.30
2022-07-26T10:47:10.974Z,1.27
2022-07-26T10:49:38.797Z,1.45
2022-07-26T10:52:11.605Z,1.25
2022-07-26T10:55:14.818Z,1.30
2022-07-26T10:57:44.764Z,1.60
2022-07-26T11:00:19.881Z,1.30
2022-07-26T11:02:54.455Z,1.23
2022-07-26T11:05:21.742Z,1.60
2022-07-26T11:07:58.729Z,1.40
2022-07-26T11:10:28.302Z,1.60
2022-07-26T11:13:08.031Z,1.38
2022-07-26T11:15:35.741Z,1.40
2022-07-26T11:18:13.682Z,1.30
2022-07-26T11:20:41.602Z,1.25
2022-07-26T11:23:26.870Z,1.50
2022-07-26T11:26:14.959Z,1.30
2022-07-26T11:28:48.566Z,1.60
2022-07-26T11:31:17.183Z,1.17
2022-07-26T11:33:49.143Z,1.50
2022-07-26T11:36:15.775Z,1.35
2022-07-26T11:38:50.830Z,1.23
2022-07-26T11:41:21.275Z,1.35
2022-07-26T11:44:03.754Z,1.20
2022-07-26T11:46:36.119Z,1.40
2022-07-26T11:49:03.685Z,1.40
2022-07-26T11:51:30.290Z,1.23
2022-07-26T11:53:56.807Z,1.20
2022-07-26T11:56:23.625Z,1.42
2022-07-26T11:58:52.404Z,1.30
2022-07-26T12:01:22.361Z,1.70
2022-07-26T12:03:50.282Z,1.30
2022-07-26T12:06:19.471Z,1.33
2022-07-26T12:08:50.356Z,1.40
2022-07-26T12:11:20.403Z,1.35
2022-07-26T12:13:56.341Z,1.23
2022-07-26T12:16:42.367Z,1.25
2022-07-26T12:19:22.083Z,1.30
2022-07-26T12:21:51.671Z,1.48
2022-07-26T12:24:40.876Z,1.20
2022-07-26T12:27:09.803Z,1.48
2022-07-26T12:29:36.755Z,1.40
2022-07-26T12:32:12.318Z,1.38
2022-07-26T12:34:41.605Z,1.73
2022-07-26T12:37:14.663Z,1.30
2022-07-26T12:39:42.930Z,1.40
2022-07-26T12:42:33.335Z,1.40
2022-07-26T12:47:30.115Z,1.60
2022-07-26T12:49:56.683Z,1.23
2022-07-26T12:52:23.527Z,1.30
2022-07-26T12:54:51.973Z,1.55
2022-07-26T12:57:19.443Z,1.50
2022-07-26T12:59:46.849Z,1.58
2022-07-26T13:02:13.437Z,1.50
2022-07-26T13:04:41.342Z,1.35
2022-07-26T13:07:07.961Z,1.40
2022-07-26T13:09:34.520Z,1.38
2022-07-26T13:12:01.539Z,1.42
2022-07-26T13:14:28.089Z,1.30
2022-07-26T13:16:54.705Z,1.30
2022-07-26T13:19:21.523Z,1.42
2022-07-26T13:21:52.966Z,1.40
2022-07-26T13:24:20.226Z,1.30
2022-07-26T13:26:49.277Z,1.30
2022-07-26T13:29:15.833Z,1.05
2022-07-26T13:31:42.453Z,1.13
2022-07-26T13:34:09.295Z,1.63
2022-07-26T13:36:36.095Z,1.50
2022-07-26T13:39:04.379Z,1.48
2022-07-26T13:41:31.470Z,1.30
2022-07-26T13:46:33.153Z,1.40
2022-07-26T13:51:30.344Z,1.10
2022-07-26T13:53:56.872Z,1.10
2022-07-26T13:56:24.747Z,1.08
2022-07-26T13:58:51.271Z,1.15
2022-07-26T14:01:17.864Z,1.25
2022-07-26T14:03:44.462Z,1.55
2022-07-26T14:06:10.966Z,1.25
2022-07-26T14:08:37.497Z,1.10
2022-07-26T14:11:05.098Z,1.20
2022-07-26T14:13:33.043Z,1.40
2022-07-26T14:15:59.574Z,1.02
2022-07-26T14:18:26.112Z,1.25
2022-07-26T14:20:52.636Z,1.02
2022-07-26T14:23:19.167Z,1.20
2022-07-26T14:25:45.746Z,1.15
2022-07-26T14:28:12.281Z,1.00
2022-07-26T14:30:40.182Z,1.10
2022-07-26T14:33:06.758Z,0.90
2022-07-26T14:35:33.352Z,1.30
2022-07-26T14:37:59.884Z,1.25
2022-07-26T14:40:26.429Z,0.90
2022-07-26T14:42:53.048Z,1.10
2022-07-26T14:45:19.602Z,0.80
2022-07-26T14:47:47.720Z,1.05
2022-07-26T14:50:14.913Z,1.10
2022-07-26T14:52:44.155Z,1.00
2022-07-26T14:55:11.471Z,1.00
2022-07-26T14:57:39.273Z,1.35
2022-07-26T15:00:09.096Z,1.00
2022-07-26T15:02:37.621Z,1.05
2022-07-26T15:05:06.218Z,0.82
2022-07-26T15:07:32.774Z,0.88
2022-07-26T15:09:59.305Z,0.98
2022-07-26T15:12:25.856Z,0.93
2022-07-26T15:14:52.417Z,1.13
2022-07-26T15:17:20.322Z,1.10
2022-07-26T15:19:46.897Z,1.25
2022-07-26T15:22:15.251Z,0.93
2022-07-26T15:24:41.805Z,1.10
2022-07-26T15:27:08.362Z,0.80
2022-07-26T15:29:35.398Z,0.88
2022-07-26T15:32:02.068Z,0.90
2022-07-26T15:34:28.646Z,1.10
2022-07-26T15:36:55.218Z,1.00
2022-07-26T15:39:23.118Z,0.90
2022-07-26T15:41:50.246Z,0.90
2022-07-26T15:44:18.036Z,1.20
2022-07-26T15:46:45.785Z,1.00
2022-07-26T15:49:15.760Z,1.35
2022-07-26T15:51:43.524Z,1.20
2022-07-26T15:54:12.018Z,1.00
2022-07-26T15:56:40.435Z,1.10
2022-07-26T15:59:07.047Z,1.00
2022-07-26T16:01:34.055Z,3.10
2022-07-26T16:04:00.773Z,2.67
2022-07-26T16:06:27.585Z,0.98
2022-07-26T16:09:15.101Z,2.25
2022-07-26T16:11:42.108Z,1.63
2022-07-26T16:14:08.731Z,0.90
2022-07-26T16:16:35.310Z,1.40
2022-07-26T16:19:01.888Z,1.55
2022-07-26T16:21:28.450Z,2.80
2022-07-26T16:23:55.050Z,2.40
2022-07-26T16:26:21.569Z,0.80
2022-07-26T16:28:49.657Z,1.23
2022-07-26T16:31:16.222Z,2.00
2022-07-26T16:33:46.576Z,1.00
2022-07-26T16:36:13.319Z,1.30
2022-07-26T16:38:39.871Z,0.90
2022-07-26T16:41:06.519Z,1.05
2022-07-26T16:43:33.038Z,0.75
2022-07-26T16:46:01.018Z,1.05
2022-07-26T16:48:27.783Z,0.85
2022-07-26T16:50:54.394Z,0.95
2022-07-26T16:53:20.950Z,0.90
2022-07-26T16:55:47.586Z,0.82
2022-07-26T16:58:14.170Z,0.82
2022-07-26T17:00:40.814Z,0.70
2022-07-26T17:03:08.765Z,0.73
2022-07-26T17:05:35.413Z,0.80
2022-07-26T17:08:01.955Z,0.90
2022-07-26T17:10:28.475Z,0.80
2022-07-26T17:12:54.994Z,0.70
2022-07-26T17:15:21.576Z,1.10
2022-07-26T17:17:49.020Z,0.88
2022-07-26T17:20:17.045Z,0.80
2022-07-26T17:22:43.608Z,1.10
2022-07-26T17:25:10.554Z,0.73
2022-07-26T17:27:37.098Z,0.63
2022-07-26T17:30:07.190Z,1.00
2022-07-26T17:32:34.092Z,1.00
2022-07-26T17:35:00.707Z,1.15
2022-07-26T17:37:28.724Z,1.05
2022-07-26T17:39:55.348Z,1.00
2022-07-26T17:42:24.228Z,1.00
2022-07-26T17:44:50.859Z,0.90
2022-07-26T17:47:28.072Z,0.80
2022-07-26T17:53:34.145Z,0.90
2022-07-26T17:56:01.468Z,0.98
2022-07-26T17:58:28.037Z,1.10
2022-07-26T18:00:54.590Z,0.88
2022-07-26T18:03:21.157Z,0.80
2022-07-26T18:05:47.747Z,0.80
2022-07-26T18:08:14.333Z,1.10
2022-07-26T18:10:43.662Z,1.13
2022-07-26T18:13:11.824Z,0.73
2022-07-26T18:15:38.392Z,1.00
2022-07-26T18:18:05.057Z,0.80
2022-07-26T18:20:33.203Z,0.88
2022-07-26T18:22:59.780Z,1.05
2022-07-26T18:25:26.298Z,0.95
2022-07-26T18:27:54.145Z,0.90
2022-07-26T18:30:20.881Z,0.80
2022-07-26T18:32:47.414Z,0.90
2022-07-26T18:35:13.929Z,0.75
2022-07-26T18:37:40.465Z,0.80
2022-07-26T18:40:08.394Z,0.70
2022-07-26T18:42:35.000Z,0.95
2022-07-26T18:45:02.920Z,0.90
2022-07-26T18:47:29.480Z,1.27
2022-07-26T18:49:55.995Z,0.90
2022-07-26T18:52:28.267Z,0.77
2022-07-26T18:54:59.036Z,0.88
2022-07-26T18:57:25.568Z,0.90
2022-07-26T18:59:52.089Z,0.88
2022-07-26T19:02:19.969Z,0.88
2022-07-26T19:04:46.462Z,0.90
2022-07-26T19:07:13.008Z,0.90
2022-07-26T19:09:39.516Z,1.15
2022-07-26T19:12:06.592Z,1.20
2022-07-26T19:14:33.130Z,1.10
2022-07-26T19:16:59.649Z,1.10
2022-07-26T19:19:27.510Z,1.00
2022-07-26T19:21:54.038Z,1.10
2022-07-26T19:24:20.577Z,0.82
2022-07-26T19:26:47.085Z,1.30
2022-07-26T19:29:14.021Z,0.77
2022-07-26T19:31:40.928Z,1.10
2022-07-26T19:34:07.509Z,1.20
2022-07-26T19:36:35.366Z,1.10
2022-07-26T19:39:01.909Z,0.90
2022-07-26T19:41:28.552Z,1.02
2022-07-26T19:43:55.882Z,0.85
2022-07-26T19:46:22.733Z,1.17
2022-07-26T19:48:50.242Z,0.98
2022-07-26T19:51:16.896Z,1.00
2022-07-26T19:53:44.787Z,1.40
2022-07-26T19:56:11.382Z,0.90
2022-07-26T19:58:37.924Z,1.48
2022-07-26T20:01:04.564Z,1.00
2022-07-26T20:03:31.158Z,0.90
2022-07-26T20:05:57.776Z,0.95
2022-07-26T20:08:24.748Z,0.90
2022-07-26T20:10:52.883Z,1.50
2022-07-26T20:13:19.464Z,1.08
2022-07-26T20:15:46.145Z,1.05
2022-07-26T20:18:13.032Z,1.33
2022-07-26T20:20:39.810Z,1.00
2022-07-26T20:23:06.391Z,1.15
2022-07-26T20:25:33.244Z,0.93
2022-07-26T20:28:01.198Z,1.10
2022-07-26T20:30:28.092Z,1.15
2022-07-26T20:32:54.967Z,1.00
2022-07-26T20:35:21.593Z,1.15
2022-07-26T20:37:48.148Z,1.00
2022-07-26T20:40:15.505Z,0.95
2022-07-26T20:42:44.573Z,0.90
2022-07-26T20:45:13.225Z,1.35
2022-07-26T20:47:39.843Z,1.15
2022-07-26T20:50:07.740Z,1.10
2022-07-26T20:52:34.307Z,1.10
2022-07-26T20:55:00.842Z,1.02
2022-07-26T20:57:27.390Z,1.05
2022-07-26T20:59:53.939Z,1.17
2022-07-26T21:02:21.937Z,0.90
2022-07-26T21:04:48.575Z,1.00
2022-07-26T21:07:15.296Z,1.20
2022-07-26T21:09:41.855Z,0.90
2022-07-26T21:12:09.399Z,1.00
2022-07-26T21:14:35.990Z,1.08
2022-07-26T21:17:04.665Z,1.10
2022-07-26T21:19:34.579Z,0.90
2022-07-26T21:22:01.170Z,1.20
2022-07-26T21:24:27.990Z,1.20
2022-07-26T21:26:54.552Z,1.05
2022-07-26T21:29:21.400Z,1.13
2022-07-26T21:31:48.030Z,1.40
2022-07-26T21:34:14.673Z,1.10
2022-07-26T21:36:42.610Z,1.52
2022-07-26T21:39:09.493Z,1.27
2022-07-26T21:41:36.605Z,1.05
2022-07-26T21:44:03.991Z,1.10
2022-07-26T21:46:30.676Z,1.25
2022-07-26T21:48:57.326Z,1.10
2022-07-26T21:51:23.935Z,1.20
2022-07-26T21:53:51.839Z,1.30
2022-07-26T21:56:18.545Z,1.40
2022-07-26T21:58:45.115Z,1.10
2022-07-26T22:01:14.051Z,1.30
2022-07-26T22:03:41.361Z,1.15
2022-07-26T22:06:08.403Z,1.23
2022-07-26T22:08:35.022Z,1.27
2022-07-26T22:11:03.990Z,1.23
2022-07-26T22:13:30.616Z,1.58
2022-07-26T22:15:57.234Z,1.30
2022-07-26T22:18:23.813Z,1.48
2022-07-26T22:20:50.376Z,1.30
2022-07-26T22:23:18.603Z,1.27
2022-07-26T22:25:45.631Z,1.58
2022-07-26T22:28:18.443Z,1.10
2022-07-26T22:30:45.417Z,1.20
2022-07-26T22:33:11.976Z,1.30
2022-07-26T22:35:38.687Z,1.38
2022-07-26T22:38:08.110Z,1.70
2022-07-26T22:40:35.299Z,1.50
2022-07-26T22:43:02.098Z,1.20
2022-07-26T22:45:32.002Z,1.58
2022-07-26T22:47:58.803Z,1.50
2022-07-26T22:50:25.488Z,1.50
2022-07-26T22:52:52.443Z,1.50
2022-07-26T22:55:19.304Z,1.67
2022-07-26T22:57:46.126Z,1.55
2022-07-26T23:00:15.115Z,1.83
2022-07-26T23:02:43.382Z,1.95
2022-07-26T23:05:11.310Z,2.20
2022-07-26T23:07:38.475Z,1.88
2022-07-26T23:10:08.839Z,1.83
2022-07-26T23:12:36.046Z,1.63
2022-07-26T23:15:03.570Z,1.63
2022-07-26T23:17:30.163Z,1.80
2022-07-26T23:19:58.071Z,1.70
2022-07-26T23:22:24.721Z,1.45
2022-07-26T23:24:51.258Z,2.03
2022-07-26T23:27:20.108Z,1.80
2022-07-26T23:29:47.022Z,1.83
2022-07-26T23:32:14.855Z,2.47
2022-07-26T23:34:41.415Z,1.80
2022-07-26T23:37:09.399Z,2.22
2022-07-26T23:39:36.000Z,1.90
2022-07-26T23:42:02.624Z,1.90
2022-07-26T23:44:29.883Z,2.28
2022-07-26T23:46:56.551Z,2.20
2022-07-26T23:49:23.282Z,2.28
2022-07-26T23:51:50.069Z,1.90
2022-07-26T23:54:18.078Z,2.30
2022-07-26T23:56:44.647Z,2.30
2022-07-26T23:59:11.771Z,2.15
